sensor_id;sensor_type;location;lat;lon;timestamp;temperature;humidity
24011;DHT22;12217;50.792;4.372;2022-08-01T00:00:32;21.20;99.90
24011;DHT22;12217;50.792;4.372;2022-08-01T00:02:58;21.10;99.90
24011;DHT22;12217;50.792;4.372;2022-08-01T00:05:23;21.10;99.90
24011;DHT22;12217;50.792;4.372;2022-08-01T00:07:49;21.30;99.90
24011;DHT22;12217;50.792;4.372;2022-08-01T00:10:16;21.30;99.90
24011;DHT22;12217;50.792;4.372;2022-08-01T00:12:42;21.30;99.90
24011;DHT22;12217;50.792;4.372;2022-08-01T00:15:10;21.40;99.90
24011;DHT22;12217;50.792;4.372;2022-08-01T00:17:36;21.50;99.90
24011;DHT22;12217;50.792;4.372;2022-08-01T00:20:03;21.40;99.90
24011;DHT22;12217;50.792;4.372;2022-08-01T00:22:34;21.20;99.90
24011;DHT22;12217;50.792;4.372;2022-08-01T00:25:00;21.10;99.90
24011;DHT22;12217;50.792;4.372;2022-08-01T00:27:26;21.20;99.90
24011;DHT22;12217;50.792;4.372;2022-08-01T00:29:52;21.20;99.90
24011;DHT22;12217;50.792;4.372;2022-08-01T00:32:17;21.30;99.90
24011;DHT22;12217;50.792;4.372;2022-08-01T00:34:43;21.40;99.90
24011;DHT22;12217;50.792;4.372;2022-08-01T00:37:08;21.50;99.90
24011;DHT22;12217;50.792;4.372;2022-08-01T00:39:34;21.40;99.90
24011;DHT22;12217;50.792;4.372;2022-08-01T00:42:05;21.40;99.90
24011;DHT22;12217;50.792;4.372;2022-08-01T00:44:31;21.40;99.90
24011;DHT22;12217;50.792;4.372;2022-08-01T00:46:56;21.30;99.90
24011;DHT22;12217;50.792;4.372;2022-08-01T00:49:22;21.40;99.90
24011;DHT22;12217;50.792;4.372;2022-08-01T00:51:48;21.40;99.90
24011;DHT22;12217;50.792;4.372;2022-08-01T00:54:14;21.40;99.90
24011;DHT22;12217;50.792;4.372;2022-08-01T00:56:40;21.60;99.90
24011;DHT22;12217;50.792;4.372;2022-08-01T00:59:07;21.60;99.90
24011;DHT22;12217;50.792;4.372;2022-08-01T01:01:33;21.70;99.90
24011;DHT22;12217;50.792;4.372;2022-08-01T01:04:00;21.50;99.90
24011;DHT22;12217;50.792;4.372;2022-08-01T01:09:23;21.30;99.90
24011;DHT22;12217;50.792;4.372;2022-08-01T01:12:07;21.30;99.90
24011;DHT22;12217;50.792;4.372;2022-08-01T01:17:13;21.20;99.90
24011;DHT22;12217;50.792;4.372;2022-08-01T01:19:45;21.40;99.90
24011;DHT22;12217;50.792;4.372;2022-08-01T01:23:05;21.60;99.90
24011;DHT22;12217;50.792;4.372;2022-08-01T01:27:59;21.50;99.90
24011;DHT22;12217;50.792;4.372;2022-08-01T01:30:29;21.40;99.90
24011;DHT22;12217;50.792;4.372;2022-08-01T01:32:58;21.30;99.90
24011;DHT22;12217;50.792;4.372;2022-08-01T01:35:28;21.30;99.90
24011;DHT22;12217;50.792;4.372;2022-08-01T01:38:00;21.30;99.90
24011;DHT22;12217;50.792;4.372;2022-08-01T01:40:27;21.30;99.90
24011;DHT22;12217;50.792;4.372;2022-08-01T01:42:56;21.10;99.90
24011;DHT22;12217;50.792;4.372;2022-08-01T01:45:23;21.00;99.90
24011;DHT22;12217;50.792;4.372;2022-08-01T01:47:50;20.90;99.90
24011;DHT22;12217;50.792;4.372;2022-08-01T01:50:20;20.80;99.90
24011;DHT22;12217;50.792;4.372;2022-08-01T01:52:46;21.00;99.90
24011;DHT22;12217;50.792;4.372;2022-08-01T01:55:13;20.90;99.90
24011;DHT22;12217;50.792;4.372;2022-08-01T01:57:41;20.70;99.90
24011;DHT22;12217;50.792;4.372;2022-08-01T02:00:10;20.80;99.90
24011;DHT22;12217;50.792;4.372;2022-08-01T02:02:37;20.90;99.90
24011;DHT22;12217;50.792;4.372;2022-08-01T02:05:05;20.90;99.90
24011;DHT22;12217;50.792;4.372;2022-08-01T02:07:32;21.00;99.90
24011;DHT22;12217;50.792;4.372;2022-08-01T02:10:00;21.10;99.90
24011;DHT22;12217;50.792;4.372;2022-08-01T02:12:27;21.00;99.90
24011;DHT22;12217;50.792;4.372;2022-08-01T02:14:55;20.90;99.90
24011;DHT22;12217;50.792;4.372;2022-08-01T02:17:23;20.80;99.90
24011;DHT22;12217;50.792;4.372;2022-08-01T02:19:50;20.80;99.90
24011;DHT22;12217;50.792;4.372;2022-08-01T02:22:29;20.80;99.90
24011;DHT22;12217;50.792;4.372;2022-08-01T02:25:25;20.90;99.90
24011;DHT22;12217;50.792;4.372;2022-08-01T02:28:03;21.00;99.90
24011;DHT22;12217;50.792;4.372;2022-08-01T02:30:42;21.00;99.90
24011;DHT22;12217;50.792;4.372;2022-08-01T02:33:16;21.20;99.90
24011;DHT22;12217;50.792;4.372;2022-08-01T02:35:43;21.30;99.90
24011;DHT22;12217;50.792;4.372;2022-08-01T02:38:12;21.40;99.90
24011;DHT22;12217;50.792;4.372;2022-08-01T02:40:43;21.30;99.90
24011;DHT22;12217;50.792;4.372;2022-08-01T02:43:12;21.30;99.90
24011;DHT22;12217;50.792;4.372;2022-08-01T02:45:45;21.30;99.90
24011;DHT22;12217;50.792;4.372;2022-08-01T02:48:14;21.40;99.90
24011;DHT22;12217;50.792;4.372;2022-08-01T02:50:44;21.40;99.90
24011;DHT22;12217;50.792;4.372;2022-08-01T02:53:12;21.30;99.90
24011;DHT22;12217;50.792;4.372;2022-08-01T02:55:39;21.40;99.90
24011;DHT22;12217;50.792;4.372;2022-08-01T02:58:07;21.40;99.90
24011;DHT22;12217;50.792;4.372;2022-08-01T03:00:34;21.40;99.90
24011;DHT22;12217;50.792;4.372;2022-08-01T03:03:01;21.30;99.90
24011;DHT22;12217;50.792;4.372;2022-08-01T03:05:29;21.10;99.90
24011;DHT22;12217;50.792;4.372;2022-08-01T03:07:56;21.10;99.90
24011;DHT22;12217;50.792;4.372;2022-08-01T03:10:24;21.10;99.90
24011;DHT22;12217;50.792;4.372;2022-08-01T03:12:52;21.20;99.90
24011;DHT22;12217;50.792;4.372;2022-08-01T03:15:18;21.20;99.90
24011;DHT22;12217;50.792;4.372;2022-08-01T03:17:45;21.00;99.90
24011;DHT22;12217;50.792;4.372;2022-08-01T03:20:14;20.90;99.90
24011;DHT22;12217;50.792;4.372;2022-08-01T03:22:42;20.90;99.90
24011;DHT22;12217;50.792;4.372;2022-08-01T03:25:10;20.80;99.90
24011;DHT22;12217;50.792;4.372;2022-08-01T03:27:40;20.80;99.90
24011;DHT22;12217;50.792;4.372;2022-08-01T03:30:07;20.60;99.90
24011;DHT22;12217;50.792;4.372;2022-08-01T03:32:33;20.70;99.90
24011;DHT22;12217;50.792;4.372;2022-08-01T03:34:59;20.70;99.90
24011;DHT22;12217;50.792;4.372;2022-08-01T03:37:32;20.50;99.90
24011;DHT22;12217;50.792;4.372;2022-08-01T03:40:13;20.50;99.90
24011;DHT22;12217;50.792;4.372;2022-08-01T03:42:47;20.70;99.90
24011;DHT22;12217;50.792;4.372;2022-08-01T03:45:30;20.70;99.90
24011;DHT22;12217;50.792;4.372;2022-08-01T03:47:59;20.80;99.90
24011;DHT22;12217;50.792;4.372;2022-08-01T03:50:27;20.90;99.90
24011;DHT22;12217;50.792;4.372;2022-08-01T03:52:54;20.80;99.90
24011;DHT22;12217;50.792;4.372;2022-08-01T03:55:23;20.80;99.90
24011;DHT22;12217;50.792;4.372;2022-08-01T03:57:50;20.80;99.90
24011;DHT22;12217;50.792;4.372;2022-08-01T04:00:17;20.80;99.90
24011;DHT22;12217;50.792;4.372;2022-08-01T04:02:48;20.90;99.90
24011;DHT22;12217;50.792;4.372;2022-08-01T04:05:15;20.80;99.90
24011;DHT22;12217;50.792;4.372;2022-08-01T04:07:46;20.80;99.90
24011;DHT22;12217;50.792;4.372;2022-08-01T04:10:12;20.90;99.90
24011;DHT22;12217;50.792;4.372;2022-08-01T04:12:38;20.90;99.90
24011;DHT22;12217;50.792;4.372;2022-08-01T04:15:04;20.80;99.90
24011;DHT22;12217;50.792;4.372;2022-08-01T04:17:30;20.80;99.90
24011;DHT22;12217;50.792;4.372;2022-08-01T04:19:56;20.90;99.90
24011;DHT22;12217;50.792;4.372;2022-08-01T04:22:22;20.80;99.90
24011;DHT22;12217;50.792;4.372;2022-08-01T04:24:50;20.80;99.90
24011;DHT22;12217;50.792;4.372;2022-08-01T04:27:22;20.80;99.90
24011;DHT22;12217;50.792;4.372;2022-08-01T04:29:49;20.90;99.90
24011;DHT22;12217;50.792;4.372;2022-08-01T04:32:18;20.90;99.90
24011;DHT22;12217;50.792;4.372;2022-08-01T04:34:46;20.90;99.90
24011;DHT22;12217;50.792;4.372;2022-08-01T04:37:14;20.90;99.90
24011;DHT22;12217;50.792;4.372;2022-08-01T04:39:42;20.90;99.90
24011;DHT22;12217;50.792;4.372;2022-08-01T04:42:08;20.90;99.90
24011;DHT22;12217;50.792;4.372;2022-08-01T04:44:36;20.80;99.90
24011;DHT22;12217;50.792;4.372;2022-08-01T04:47:03;20.80;99.90
24011;DHT22;12217;50.792;4.372;2022-08-01T04:49:34;20.80;99.90
24011;DHT22;12217;50.792;4.372;2022-08-01T04:52:00;20.90;99.90
24011;DHT22;12217;50.792;4.372;2022-08-01T04:54:30;20.90;99.90
24011;DHT22;12217;50.792;4.372;2022-08-01T04:56:58;20.80;99.90
24011;DHT22;12217;50.792;4.372;2022-08-01T04:59:28;20.90;99.90
24011;DHT22;12217;50.792;4.372;2022-08-01T05:04:33;21.00;99.90
24011;DHT22;12217;50.792;4.372;2022-08-01T05:06:59;20.90;99.90
24011;DHT22;12217;50.792;4.372;2022-08-01T05:09:25;21.00;99.90
24011;DHT22;12217;50.792;4.372;2022-08-01T05:11:51;21.00;99.90
24011;DHT22;12217;50.792;4.372;2022-08-01T05:14:16;21.00;99.90
24011;DHT22;12217;50.792;4.372;2022-08-01T05:16:42;21.10;99.90
24011;DHT22;12217;50.792;4.372;2022-08-01T05:19:08;21.00;99.90
24011;DHT22;12217;50.792;4.372;2022-08-01T05:21:34;20.90;99.90
24011;DHT22;12217;50.792;4.372;2022-08-01T05:24:00;21.00;99.90
24011;DHT22;12217;50.792;4.372;2022-08-01T05:26:26;21.00;99.90
24011;DHT22;12217;50.792;4.372;2022-08-01T05:28:51;21.10;99.90
24011;DHT22;12217;50.792;4.372;2022-08-01T05:31:17;21.00;99.90
24011;DHT22;12217;50.792;4.372;2022-08-01T05:33:42;21.10;99.90
24011;DHT22;12217;50.792;4.372;2022-08-01T05:36:08;21.10;99.90
24011;DHT22;12217;50.792;4.372;2022-08-01T05:38:34;21.10;99.90
24011;DHT22;12217;50.792;4.372;2022-08-01T05:40:59;21.20;99.90
24011;DHT22;12217;50.792;4.372;2022-08-01T05:43:25;21.20;99.90
24011;DHT22;12217;50.792;4.372;2022-08-01T05:45:50;21.20;99.90
24011;DHT22;12217;50.792;4.372;2022-08-01T05:48:16;21.20;99.90
24011;DHT22;12217;50.792;4.372;2022-08-01T05:50:42;21.10;99.90
24011;DHT22;12217;50.792;4.372;2022-08-01T05:53:07;21.20;99.90
24011;DHT22;12217;50.792;4.372;2022-08-01T05:55:34;21.30;99.90
24011;DHT22;12217;50.792;4.372;2022-08-01T05:58:01;21.40;99.90
24011;DHT22;12217;50.792;4.372;2022-08-01T06:00:26;21.30;99.90
24011;DHT22;12217;50.792;4.372;2022-08-01T06:02:52;21.30;99.90
24011;DHT22;12217;50.792;4.372;2022-08-01T06:05:18;21.40;99.90
24011;DHT22;12217;50.792;4.372;2022-08-01T06:07:43;21.30;99.90
24011;DHT22;12217;50.792;4.372;2022-08-01T06:10:09;21.40;99.90
24011;DHT22;12217;50.792;4.372;2022-08-01T06:12:35;21.40;99.90
24011;DHT22;12217;50.792;4.372;2022-08-01T06:15:01;21.40;99.90
24011;DHT22;12217;50.792;4.372;2022-08-01T06:17:27;21.40;99.90
24011;DHT22;12217;50.792;4.372;2022-08-01T06:19:52;21.40;99.90
24011;DHT22;12217;50.792;4.372;2022-08-01T06:22:18;21.40;99.90
24011;DHT22;12217;50.792;4.372;2022-08-01T06:24:44;21.40;99.90
24011;DHT22;12217;50.792;4.372;2022-08-01T06:27:09;21.50;99.90
24011;DHT22;12217;50.792;4.372;2022-08-01T06:29:35;21.50;99.90
24011;DHT22;12217;50.792;4.372;2022-08-01T06:32:00;21.60;99.90
24011;DHT22;12217;50.792;4.372;2022-08-01T06:34:26;21.60;99.90
24011;DHT22;12217;50.792;4.372;2022-08-01T06:36:52;21.70;99.90
24011;DHT22;12217;50.792;4.372;2022-08-01T06:39:17;21.70;99.90
24011;DHT22;12217;50.792;4.372;2022-08-01T06:41:43;21.80;99.90
24011;DHT22;12217;50.792;4.372;2022-08-01T06:44:11;21.90;99.90
24011;DHT22;12217;50.792;4.372;2022-08-01T06:46:37;22.00;99.90
24011;DHT22;12217;50.792;4.372;2022-08-01T06:49:03;22.00;99.90
24011;DHT22;12217;50.792;4.372;2022-08-01T06:51:28;22.00;99.90
24011;DHT22;12217;50.792;4.372;2022-08-01T06:53:54;22.10;99.90
24011;DHT22;12217;50.792;4.372;2022-08-01T06:56:19;22.10;99.90
24011;DHT22;12217;50.792;4.372;2022-08-01T06:58:45;22.10;99.90
24011;DHT22;12217;50.792;4.372;2022-08-01T07:01:11;22.20;99.90
24011;DHT22;12217;50.792;4.372;2022-08-01T07:03:37;22.20;99.90
24011;DHT22;12217;50.792;4.372;2022-08-01T07:06:03;22.20;99.90
24011;DHT22;12217;50.792;4.372;2022-08-01T07:08:28;22.20;99.90
24011;DHT22;12217;50.792;4.372;2022-08-01T07:10:54;22.20;99.90
24011;DHT22;12217;50.792;4.372;2022-08-01T07:13:21;22.20;99.90
24011;DHT22;12217;50.792;4.372;2022-08-01T07:15:50;22.30;99.90
24011;DHT22;12217;50.792;4.372;2022-08-01T07:18:16;22.50;99.90
24011;DHT22;12217;50.792;4.372;2022-08-01T07:20:41;22.40;99.90
24011;DHT22;12217;50.792;4.372;2022-08-01T07:23:08;22.40;99.90
24011;DHT22;12217;50.792;4.372;2022-08-01T07:25:34;22.40;99.90
24011;DHT22;12217;50.792;4.372;2022-08-01T07:27:59;22.20;99.90
24011;DHT22;12217;50.792;4.372;2022-08-01T07:30:25;22.20;99.90
24011;DHT22;12217;50.792;4.372;2022-08-01T07:32:51;22.20;99.90
24011;DHT22;12217;50.792;4.372;2022-08-01T07:35:17;22.30;99.90
24011;DHT22;12217;50.792;4.372;2022-08-01T07:37:42;22.50;99.90
24011;DHT22;12217;50.792;4.372;2022-08-01T07:40:08;22.60;99.90
24011;DHT22;12217;50.792;4.372;2022-08-01T07:42:34;22.50;99.90
24011;DHT22;12217;50.792;4.372;2022-08-01T07:45:00;22.60;99.90
24011;DHT22;12217;50.792;4.372;2022-08-01T07:47:26;22.70;99.90
24011;DHT22;12217;50.792;4.372;2022-08-01T07:49:58;22.90;99.90
24011;DHT22;12217;50.792;4.372;2022-08-01T07:52:23;23.00;99.90
24011;DHT22;12217;50.792;4.372;2022-08-01T07:54:49;22.90;99.90
24011;DHT22;12217;50.792;4.372;2022-08-01T07:57:14;22.90;99.90
24011;DHT22;12217;50.792;4.372;2022-08-01T07:59:40;23.00;99.90
24011;DHT22;12217;50.792;4.372;2022-08-01T08:02:06;23.10;99.90
24011;DHT22;12217;50.792;4.372;2022-08-01T08:04:31;23.20;99.90
24011;DHT22;12217;50.792;4.372;2022-08-01T08:06:57;23.40;99.90
24011;DHT22;12217;50.792;4.372;2022-08-01T08:09:22;23.40;99.90
24011;DHT22;12217;50.792;4.372;2022-08-01T08:11:48;23.60;99.90
24011;DHT22;12217;50.792;4.372;2022-08-01T08:14:16;23.50;99.90
24011;DHT22;12217;50.792;4.372;2022-08-01T08:16:43;23.40;99.90
24011;DHT22;12217;50.792;4.372;2022-08-01T08:19:09;23.50;99.90
24011;DHT22;12217;50.792;4.372;2022-08-01T08:21:35;23.60;99.90
24011;DHT22;12217;50.792;4.372;2022-08-01T08:24:01;23.70;99.90
24011;DHT22;12217;50.792;4.372;2022-08-01T08:26:53;23.80;99.90
24011;DHT22;12217;50.792;4.372;2022-08-01T08:29:20;24.00;99.90
24011;DHT22;12217;50.792;4.372;2022-08-01T08:31:46;23.90;99.90
24011;DHT22;12217;50.792;4.372;2022-08-01T08:34:12;23.90;99.90
24011;DHT22;12217;50.792;4.372;2022-08-01T08:36:38;23.90;99.90
24011;DHT22;12217;50.792;4.372;2022-08-01T08:39:04;23.90;99.90
24011;DHT22;12217;50.792;4.372;2022-08-01T08:41:30;24.00;99.90
24011;DHT22;12217;50.792;4.372;2022-08-01T08:43:56;23.80;99.90
24011;DHT22;12217;50.792;4.372;2022-08-01T08:46:25;23.90;99.90
24011;DHT22;12217;50.792;4.372;2022-08-01T08:48:52;23.70;99.90
24011;DHT22;12217;50.792;4.372;2022-08-01T08:51:18;23.80;99.90
24011;DHT22;12217;50.792;4.372;2022-08-01T08:53:46;24.00;99.90
24011;DHT22;12217;50.792;4.372;2022-08-01T08:56:13;24.10;99.90
24011;DHT22;12217;50.792;4.372;2022-08-01T08:58:41;24.20;99.90
24011;DHT22;12217;50.792;4.372;2022-08-01T09:01:07;24.10;99.90
24011;DHT22;12217;50.792;4.372;2022-08-01T09:03:36;24.10;99.90
24011;DHT22;12217;50.792;4.372;2022-08-01T09:06:02;24.00;99.90
24011;DHT22;12217;50.792;4.372;2022-08-01T09:08:28;23.90;99.90
24011;DHT22;12217;50.792;4.372;2022-08-01T09:10:53;23.70;99.90
24011;DHT22;12217;50.792;4.372;2022-08-01T09:13:19;23.60;99.90
24011;DHT22;12217;50.792;4.372;2022-08-01T09:15:47;23.80;99.90
24011;DHT22;12217;50.792;4.372;2022-08-01T09:18:26;24.00;99.90
24011;DHT22;12217;50.792;4.372;2022-08-01T09:21:17;24.20;99.90
24011;DHT22;12217;50.792;4.372;2022-08-01T09:23:49;24.40;99.90
24011;DHT22;12217;50.792;4.372;2022-08-01T09:26:18;24.60;99.90
24011;DHT22;12217;50.792;4.372;2022-08-01T09:28:45;24.60;99.90
24011;DHT22;12217;50.792;4.372;2022-08-01T09:31:13;24.60;99.90
24011;DHT22;12217;50.792;4.372;2022-08-01T09:33:58;24.70;99.90
24011;DHT22;12217;50.792;4.372;2022-08-01T09:36:26;24.80;99.90
24011;DHT22;12217;50.792;4.372;2022-08-01T09:38:54;24.80;99.90
24011;DHT22;12217;50.792;4.372;2022-08-01T09:41:32;25.00;99.90
24011;DHT22;12217;50.792;4.372;2022-08-01T09:43:58;24.80;99.90
24011;DHT22;12217;50.792;4.372;2022-08-01T09:46:24;24.60;99.90
24011;DHT22;12217;50.792;4.372;2022-08-01T09:49:01;24.70;99.90
24011;DHT22;12217;50.792;4.372;2022-08-01T09:51:37;24.80;99.90
24011;DHT22;12217;50.792;4.372;2022-08-01T09:54:05;24.90;99.90
24011;DHT22;12217;50.792;4.372;2022-08-01T09:56:49;24.70;99.90
24011;DHT22;12217;50.792;4.372;2022-08-01T09:59:14;24.60;99.90
24011;DHT22;12217;50.792;4.372;2022-08-01T10:01:46;24.60;99.90
24011;DHT22;12217;50.792;4.372;2022-08-01T10:04:13;24.60;99.90
24011;DHT22;12217;50.792;4.372;2022-08-01T10:06:40;24.70;99.90
24011;DHT22;12217;50.792;4.372;2022-08-01T10:09:08;25.00;99.90
24011;DHT22;12217;50.792;4.372;2022-08-01T10:11:35;25.00;99.90
24011;DHT22;12217;50.792;4.372;2022-08-01T10:14:05;24.90;99.90
24011;DHT22;12217;50.792;4.372;2022-08-01T10:16:32;24.50;99.90
24011;DHT22;12217;50.792;4.372;2022-08-01T10:18:59;24.50;99.90
24011;DHT22;12217;50.792;4.372;2022-08-01T10:21:26;24.60;99.90
24011;DHT22;12217;50.792;4.372;2022-08-01T10:23:54;24.90;99.90
24011;DHT22;12217;50.792;4.372;2022-08-01T10:26:20;25.00;99.90
24011;DHT22;12217;50.792;4.372;2022-08-01T10:28:48;25.10;99.90
24011;DHT22;12217;50.792;4.372;2022-08-01T10:31:14;25.20;99.90
24011;DHT22;12217;50.792;4.372;2022-08-01T10:33:40;25.30;99.90
24011;DHT22;12217;50.792;4.372;2022-08-01T10:36:07;25.40;99.90
24011;DHT22;12217;50.792;4.372;2022-08-01T10:38:34;25.50;99.90
24011;DHT22;12217;50.792;4.372;2022-08-01T10:41:02;25.80;99.90
24011;DHT22;12217;50.792;4.372;2022-08-01T10:43:28;25.90;99.90
24011;DHT22;12217;50.792;4.372;2022-08-01T10:45:54;26.10;99.90
24011;DHT22;12217;50.792;4.372;2022-08-01T10:48:31;26.10;99.90
24011;DHT22;12217;50.792;4.372;2022-08-01T10:51:02;26.10;99.90
24011;DHT22;12217;50.792;4.372;2022-08-01T10:53:29;25.90;99.90
24011;DHT22;12217;50.792;4.372;2022-08-01T11:03:43;26.10;99.90
24011;DHT22;12217;50.792;4.372;2022-08-01T11:06:22;26.20;99.90
24011;DHT22;12217;50.792;4.372;2022-08-01T11:08:54;26.40;99.90
24011;DHT22;12217;50.792;4.372;2022-08-01T11:11:20;26.20;99.90
24011;DHT22;12217;50.792;4.372;2022-08-01T11:14:05;26.40;99.90
24011;DHT22;12217;50.792;4.372;2022-08-01T11:16:36;26.40;99.90
24011;DHT22;12217;50.792;4.372;2022-08-01T11:19:03;26.00;99.90
24011;DHT22;12217;50.792;4.372;2022-08-01T11:22:01;26.00;99.90
24011;DHT22;12217;50.792;4.372;2022-08-01T11:27:30;26.50;99.90
24011;DHT22;12217;50.792;4.372;2022-08-01T11:32:47;27.30;99.90
24011;DHT22;12217;50.792;4.372;2022-08-01T11:35:13;27.50;99.90
24011;DHT22;12217;50.792;4.372;2022-08-01T11:37:39;27.70;99.90
24011;DHT22;12217;50.792;4.372;2022-08-01T11:42:42;27.50;99.90
24011;DHT22;12217;50.792;4.372;2022-08-01T11:45:08;27.70;99.90
24011;DHT22;12217;50.792;4.372;2022-08-01T11:47:50;27.90;99.90
24011;DHT22;12217;50.792;4.372;2022-08-01T11:53:05;28.00;99.90
24011;DHT22;12217;50.792;4.372;2022-08-01T11:55:32;28.10;99.90
24011;DHT22;12217;50.792;4.372;2022-08-01T11:58:07;28.10;99.90
24011;DHT22;12217;50.792;4.372;2022-08-01T12:00:33;27.80;99.90
24011;DHT22;12217;50.792;4.372;2022-08-01T12:03:02;27.90;99.90
24011;DHT22;12217;50.792;4.372;2022-08-01T12:05:29;27.80;99.90
24011;DHT22;12217;50.792;4.372;2022-08-01T12:07:56;27.80;99.90
24011;DHT22;12217;50.792;4.372;2022-08-01T12:10:25;28.20;99.90
24011;DHT22;12217;50.792;4.372;2022-08-01T12:13:02;28.50;99.90
24011;DHT22;12217;50.792;4.372;2022-08-01T12:15:36;28.60;99.90
24011;DHT22;12217;50.792;4.372;2022-08-01T12:18:03;28.90;99.90
24011;DHT22;12217;50.792;4.372;2022-08-01T12:20:40;29.10;99.90
24011;DHT22;12217;50.792;4.372;2022-08-01T12:23:09;29.30;99.90
24011;DHT22;12217;50.792;4.372;2022-08-01T12:25:36;29.20;99.90
24011;DHT22;12217;50.792;4.372;2022-08-01T12:28:04;29.20;99.90
24011;DHT22;12217;50.792;4.372;2022-08-01T12:30:31;29.30;99.90
24011;DHT22;12217;50.792;4.372;2022-08-01T12:32:57;29.30;99.90
24011;DHT22;12217;50.792;4.372;2022-08-01T12:35:25;29.60;99.90
24011;DHT22;12217;50.792;4.372;2022-08-01T12:37:53;29.60;99.90
24011;DHT22;12217;50.792;4.372;2022-08-01T12:40:21;29.30;98.60
24011;DHT22;12217;50.792;4.372;2022-08-01T12:42:52;29.30;99.90
24011;DHT22;12217;50.792;4.372;2022-08-01T12:45:20;29.60;99.90
24011;DHT22;12217;50.792;4.372;2022-08-01T12:47:47;29.90;99.90
24011;DHT22;12217;50.792;4.372;2022-08-01T12:50:20;30.30;99.90
24011;DHT22;12217;50.792;4.372;2022-08-01T12:52:46;30.60;97.90
24011;DHT22;12217;50.792;4.372;2022-08-01T12:57:44;30.60;98.50
24011;DHT22;12217;50.792;4.372;2022-08-01T13:02:44;31.00;96.30
24011;DHT22;12217;50.792;4.372;2022-08-01T13:05:10;30.90;95.40
24011;DHT22;12217;50.792;4.372;2022-08-01T13:07:37;30.70;96.40
24011;DHT22;12217;50.792;4.372;2022-08-01T13:10:03;30.70;96.30
24011;DHT22;12217;50.792;4.372;2022-08-01T13:12:30;30.50;95.90
24011;DHT22;12217;50.792;4.372;2022-08-01T13:14:55;30.60;95.50
24011;DHT22;12217;50.792;4.372;2022-08-01T13:17:34;30.30;95.60
24011;DHT22;12217;50.792;4.372;2022-08-01T13:20:05;30.10;95.70
24011;DHT22;12217;50.792;4.372;2022-08-01T13:22:35;29.80;95.60
24011;DHT22;12217;50.792;4.372;2022-08-01T13:25:14;29.50;96.30
24011;DHT22;12217;50.792;4.372;2022-08-01T13:27:41;29.20;97.50
24011;DHT22;12217;50.792;4.372;2022-08-01T13:30:16;29.20;98.00
24011;DHT22;12217;50.792;4.372;2022-08-01T13:32:43;29.40;97.30
24011;DHT22;12217;50.792;4.372;2022-08-01T13:35:11;29.20;97.50
24011;DHT22;12217;50.792;4.372;2022-08-01T13:37:39;29.20;98.50
24011;DHT22;12217;50.792;4.372;2022-08-01T13:40:07;29.30;97.90
24011;DHT22;12217;50.792;4.372;2022-08-01T13:42:33;29.30;97.30
24011;DHT22;12217;50.792;4.372;2022-08-01T13:44:59;29.10;97.60
24011;DHT22;12217;50.792;4.372;2022-08-01T13:47:24;28.80;98.10
24011;DHT22;12217;50.792;4.372;2022-08-01T13:49:50;28.80;98.30
24011;DHT22;12217;50.792;4.372;2022-08-01T13:52:15;28.90;99.90
24011;DHT22;12217;50.792;4.372;2022-08-01T13:54:41;28.80;98.70
24011;DHT22;12217;50.792;4.372;2022-08-01T13:57:06;28.90;98.70
24011;DHT22;12217;50.792;4.372;2022-08-01T13:59:33;28.80;98.50
24011;DHT22;12217;50.792;4.372;2022-08-01T14:01:58;28.60;98.40
24011;DHT22;12217;50.792;4.372;2022-08-01T14:04:24;28.40;97.90
24011;DHT22;12217;50.792;4.372;2022-08-01T14:06:50;28.30;98.30
24011;DHT22;12217;50.792;4.372;2022-08-01T14:09:16;28.50;99.80
24011;DHT22;12217;50.792;4.372;2022-08-01T14:11:45;28.70;98.40
24011;DHT22;12217;50.792;4.372;2022-08-01T14:14:11;28.90;97.60
24011;DHT22;12217;50.792;4.372;2022-08-01T14:16:36;28.60;96.80
24011;DHT22;12217;50.792;4.372;2022-08-01T14:19:03;28.80;96.80
24011;DHT22;12217;50.792;4.372;2022-08-01T14:21:28;28.60;97.40
24011;DHT22;12217;50.792;4.372;2022-08-01T14:23:54;28.80;97.30
24011;DHT22;12217;50.792;4.372;2022-08-01T14:26:19;29.10;98.50
24011;DHT22;12217;50.792;4.372;2022-08-01T14:28:45;29.10;97.80
24011;DHT22;12217;50.792;4.372;2022-08-01T14:31:11;29.20;97.00
24011;DHT22;12217;50.792;4.372;2022-08-01T14:33:37;29.20;96.10
24011;DHT22;12217;50.792;4.372;2022-08-01T14:36:03;29.00;95.50
24011;DHT22;12217;50.792;4.372;2022-08-01T14:38:28;28.80;95.20
24011;DHT22;12217;50.792;4.372;2022-08-01T14:40:54;28.60;96.40
24011;DHT22;12217;50.792;4.372;2022-08-01T14:43:20;28.80;97.30
24011;DHT22;12217;50.792;4.372;2022-08-01T14:45:47;28.70;95.50
24011;DHT22;12217;50.792;4.372;2022-08-01T14:48:16;28.90;96.70
24011;DHT22;12217;50.792;4.372;2022-08-01T14:50:41;28.90;98.10
24011;DHT22;12217;50.792;4.372;2022-08-01T14:53:07;28.90;97.10
24011;DHT22;12217;50.792;4.372;2022-08-01T14:55:33;28.80;96.70
24011;DHT22;12217;50.792;4.372;2022-08-01T14:57:58;28.60;96.10
24011;DHT22;12217;50.792;4.372;2022-08-01T15:00:24;28.70;96.60
24011;DHT22;12217;50.792;4.372;2022-08-01T15:02:50;28.80;95.60
24011;DHT22;12217;50.792;4.372;2022-08-01T15:05:15;29.00;96.60
24011;DHT22;12217;50.792;4.372;2022-08-01T15:07:41;29.00;96.00
24011;DHT22;12217;50.792;4.372;2022-08-01T15:10:07;28.90;95.60
24011;DHT22;12217;50.792;4.372;2022-08-01T15:12:33;29.00;96.30
24011;DHT22;12217;50.792;4.372;2022-08-01T15:14:59;29.30;96.30
24011;DHT22;12217;50.792;4.372;2022-08-01T15:17:29;29.50;95.50
24011;DHT22;12217;50.792;4.372;2022-08-01T15:19:58;29.50;95.20
24011;DHT22;12217;50.792;4.372;2022-08-01T15:22:24;29.50;94.10
24011;DHT22;12217;50.792;4.372;2022-08-01T15:24:53;29.20;94.70
24011;DHT22;12217;50.792;4.372;2022-08-01T15:27:19;29.20;95.40
24011;DHT22;12217;50.792;4.372;2022-08-01T15:29:45;29.20;95.80
24011;DHT22;12217;50.792;4.372;2022-08-01T15:32:11;29.00;93.70
24011;DHT22;12217;50.792;4.372;2022-08-01T15:34:37;28.90;94.50
24011;DHT22;12217;50.792;4.372;2022-08-01T15:37:03;29.00;95.80
24011;DHT22;12217;50.792;4.372;2022-08-01T15:39:31;29.20;95.40
24011;DHT22;12217;50.792;4.372;2022-08-01T15:41:59;29.10;96.00
24011;DHT22;12217;50.792;4.372;2022-08-01T15:44:25;29.10;96.30
24011;DHT22;12217;50.792;4.372;2022-08-01T15:46:51;29.00;96.20
24011;DHT22;12217;50.792;4.372;2022-08-01T15:49:17;29.20;96.90
24011;DHT22;12217;50.792;4.372;2022-08-01T15:51:43;29.40;95.30
24011;DHT22;12217;50.792;4.372;2022-08-01T15:54:09;29.40;94.60
24011;DHT22;12217;50.792;4.372;2022-08-01T15:56:36;29.30;94.30
24011;DHT22;12217;50.792;4.372;2022-08-01T15:59:02;29.30;93.20
24011;DHT22;12217;50.792;4.372;2022-08-01T16:01:28;29.20;94.20
24011;DHT22;12217;50.792;4.372;2022-08-01T16:03:55;29.20;94.70
24011;DHT22;12217;50.792;4.372;2022-08-01T16:06:21;29.00;93.30
24011;DHT22;12217;50.792;4.372;2022-08-01T16:08:47;28.90;93.70